Janice Tyson — WDC8442 — position and weather

sailwx.info

Track history (hours):
 
Tides and Currents Weather Stations Pressure Air Temp Water Temp Dewpoint Dewpoint Depression Visibility Wind Speed Wind Dir Waves Ship Positions

Janice Tyson

Owner: Florida Marine, LLC, Mandeville, LA. More information available from US FCC via Universal Licensing System and Coast Guard Vessel Documentation Center.

Last reported at 2018-Feb-22 23:00 UTC. Time now 2018-Feb-22 23:02 UTC.
Position N 29°58' W 093°51'.

Length 27 m; draft 3 m.

Type: Towing. MMSI: 367087180.

Date/timePositionNaut miles runAvg speedWind from/ knotsBaromVisibWave heightAir tempDewpointWater temp
2018-Feb-22 23:00N 29°58' W 093°51'0 0.3
2018-Feb-22 22:30N 29°58' W 093°51'1 2.4
2018-Feb-22 22:00N 29°57' W 093°52'1 2.2
2018-Feb-22 21:30N 29°56' W 093°52'3 5.3
2018-Feb-22 21:00N 29°54' W 093°54'3 5.1
2018-Feb-22 20:30N 29°52' W 093°56'2 4.6
2018-Feb-22 20:00N 29°50' W 093°57'2 3.7
2018-Feb-22 19:30N 29°49' W 093°59'1 2.0
2018-Feb-22 19:00N 29°49' W 093°60'2 4.0
2018-Feb-22 18:30N 29°47' W 094°01'1 2.4
2018-Feb-22 18:00N 29°46' W 094°02'2 4.3
2018-Feb-22 17:30N 29°45' W 094°04'2 4.4
2018-Feb-22 17:00N 29°44' W 094°06'2 4.7
2018-Feb-22 16:30N 29°42' W 094°09'2 4.4
2018-Feb-22 16:00N 29°41' W 094°11'2 4.3
2018-Feb-22 15:30N 29°40' W 094°13'2 3.5
2018-Feb-22 15:00N 29°40' W 094°15'2 4.1
2018-Feb-22 14:30N 29°39' W 094°17'1 2.8
2018-Feb-22 14:00N 29°38' W 094°18'0 0.6
2018-Feb-22 13:30N 29°38' W 094°19'0 0.0
2018-Feb-22 13:00N 29°38' W 094°19'0 0.0
2018-Feb-22 12:30N 29°38' W 094°19'0 0.0
2018-Feb-22 11:56N 29°38' W 094°19'0 0.0
2018-Feb-22 11:30N 29°38' W 094°19'0 0.0
2018-Feb-22 10:59N 29°38' W 094°19'0 0.0
2018-Feb-22 10:30N 29°38' W 094°19'0 0.0
2018-Feb-22 09:57N 29°38' W 094°19'0 0.0
2018-Feb-22 09:29N 29°38' W 094°19'0 0.0
2018-Feb-22 08:58N 29°38' W 094°19'0 0.2
2018-Feb-22 08:30N 29°38' W 094°19'0 0.9
2018-Feb-22 07:59N 29°38' W 094°19'1 2.3
2018-Feb-22 07:30N 29°37' W 094°20'2 1.0
2018-Feb-22 05:34N 29°36' W 094°22'0 0.0
2018-Feb-22 05:28N 29°36' W 094°22'0 0.0
2018-Feb-22 04:24N 29°36' W 094°22'0 0.0
2018-Feb-22 03:51N 29°36' W 094°22'0 0.0
2018-Feb-22 03:30N 29°36' W 094°22'0 0.1
2018-Feb-22 02:47N 29°36' W 094°22'1 1.5
2018-Feb-22 02:22N 29°36' W 094°23'3 1.1
2018-Feb-21 23:41N 29°34' W 094°26'0 0.0
2018-Feb-21 23:24N 29°34' W 094°26'0 0.0
2018-Feb-21 22:53N 29°34' W 094°26'0 0.0
2018-Feb-21 21:28N 29°34' W 094°26'0 0.0
2018-Feb-21 20:49N 29°34' W 094°26'0 0.3
2018-Feb-21 20:30N 29°34' W 094°26'0 0.4
2018-Feb-21 19:58N 29°34' W 094°26'27 2.0
2018-Feb-21 06:32N 29°22' W 094°53'0 0.0
2018-Feb-21 06:12N 29°22' W 094°53'0 0.0
2018-Feb-21 05:56N 29°22' W 094°53'0 0.1
2018-Feb-21 05:28N 29°22' W 094°54'0 0.0
2018-Feb-21 04:59N 29°22' W 094°54'0 0.0
2018-Feb-21 04:26N 29°22' W 094°54'0 0.0
2018-Feb-20 23:02N 29°22' W 094°53'0 0.0
2018-Feb-20 22:14N 29°22' W 094°53'0 0.0
2018-Feb-20 17:25N 29°22' W 094°53'0 0.0
2018-Feb-20 17:00N 29°22' W 094°53'0 0.3
2018-Feb-20 16:26N 29°22' W 094°53'0 0.1
2018-Feb-20 14:52N 29°22' W 094°53'0 0.0
2018-Feb-20 14:29N 29°22' W 094°53'0 0.0
2018-Feb-20 13:58N 29°22' W 094°53'0 0.0
2018-Feb-20 13:19N 29°22' W 094°53'0 0.8
2018-Feb-20 13:00N 29°22' W 094°54'0 0.3
2018-Feb-20 12:18N 29°22' W 094°53'0 0.0
2018-Feb-20 11:50N 29°22' W 094°53'0 0.0
2018-Feb-20 11:26N 29°22' W 094°53'0 0.0
2018-Feb-20 10:43N 29°22' W 094°53'0 0.0
2018-Feb-20 10:25N 29°22' W 094°53'0 0.0
2018-Feb-20 09:51N 29°22' W 094°53'0 0.0
2018-Feb-20 09:29N 29°22' W 094°53'0 0.0
2018-Feb-20 08:56N 29°22' W 094°53'0 0.0
2018-Feb-20 08:17N 29°22' W 094°53'0 0.0
2018-Feb-20 07:58N 29°22' W 094°53'0 0.0
2018-Feb-20 07:29N 29°22' W 094°53'0 0.0
2018-Feb-20 07:00N 29°22' W 094°53'0 0.0
2018-Feb-20 06:26N 29°22' W 094°53'0 0.2
2018-Feb-20 04:23N 29°22' W 094°53'3 7.3
2018-Feb-20 03:59N 29°22' W 094°50'4 4.6
2018-Feb-20 03:07N 29°24' W 094°46'1 0.2
2018-Feb-19 21:25N 29°24' W 094°45'0 0.0
2018-Feb-19 20:44N 29°24' W 094°45'0 0.0
2018-Feb-19 20:30N 29°24' W 094°45'1 1.0
2018-Feb-19 19:48N 29°25' W 094°44'5 3.5
2018-Feb-19 18:18N 29°28' W 094°39'1 3.7
2018-Feb-19 18:00N 29°28' W 094°38'2 3.8
2018-Feb-19 17:30N 29°29' W 094°36'2 3.5
2018-Feb-19 16:59N 29°30' W 094°34'2 4.5
2018-Feb-19 16:29N 29°31' W 094°32'2 4.4
2018-Feb-19 15:59N 29°31' W 094°30'2 3.3
2018-Feb-19 15:29N 29°33' W 094°28'0 0.0
2018-Feb-19 14:51N 29°33' W 094°28'0 0.0
2018-Feb-19 14:30N 29°33' W 094°28'0 0.4
2018-Feb-19 13:58N 29°33' W 094°28'2 3.5
2018-Feb-19 13:30N 29°34' W 094°27'0 0.6
2018-Feb-19 12:57N 29°34' W 094°26'0 0.0
2018-Feb-19 12:30N 29°34' W 094°26'0 0.1
2018-Feb-19 12:00N 29°34' W 094°26'1 1.7
2018-Feb-19 11:30N 29°34' W 094°25'0 0.1
2018-Feb-19 11:00N 29°34' W 094°25'0 0.0
2018-Feb-19 10:30N 29°34' W 094°25'0 0.0
2018-Feb-19 10:00N 29°34' W 094°25'0 0.0
2018-Feb-19 09:30N 29°34' W 094°25'0 0.0
2018-Feb-19 09:00N 29°34' W 094°25'0 0.0
2018-Feb-19 08:30N 29°34' W 094°25'0 0.0
2018-Feb-19 08:00N 29°34' W 094°25'0 0.0
2018-Feb-19 07:30N 29°34' W 094°25'0 0.0
2018-Feb-19 07:00N 29°34' W 094°25'0 0.0
2018-Feb-19 06:30N 29°34' W 094°25'0 0.0
2018-Feb-19 06:00N 29°34' W 094°25'0 0.0
2018-Feb-19 05:30N 29°34' W 094°25'0 0.0
2018-Feb-19 05:00N 29°34' W 094°25'0 0.0
2018-Feb-19 04:30N 29°34' W 094°25'0 0.0
2018-Feb-19 04:00N 29°34' W 094°25'0 0.0
2018-Feb-19 03:30N 29°34' W 094°25'0 0.0
2018-Feb-19 03:00N 29°34' W 094°25'0 0.0
2018-Feb-19 02:30N 29°34' W 094°25'0 0.0
2018-Feb-19 02:01N 29°34' W 094°25'0 0.0
2018-Feb-19 01:30N 29°34' W 094°25'0 0.0
2018-Feb-19 00:59N 29°34' W 094°25'0 0.0
2018-Feb-19 00:25N 29°34' W 094°25'0 0.0
2018-Feb-18 23:59N 29°34' W 094°25'0 0.1
2018-Feb-18 23:30N 29°34' W 094°25'0 0.0
2018-Feb-18 22:59N 29°34' W 094°25'1 2.1
2018-Feb-18 22:29N 29°35' W 094°25'2 3.2
2018-Feb-18 22:00N 29°36' W 094°23'2 3.7
2018-Feb-18 21:30N 29°37' W 094°21'2 4.1
2018-Feb-18 21:00N 29°38' W 094°19'1 2.4
2018-Feb-18 20:30N 29°38' W 094°18'0 0.0
2018-Feb-18 19:59N 29°38' W 094°18'1 1.9
2018-Feb-18 19:30N 29°39' W 094°17'1 2.0
2018-Feb-18 19:00N 29°39' W 094°16'1 2.8
2018-Feb-18 18:30N 29°40' W 094°15'2 3.2
2018-Feb-18 18:00N 29°40' W 094°13'1 2.2
2018-Feb-18 17:30N 29°41' W 094°12'0 0.0
2018-Feb-18 17:00N 29°41' W 094°12'0 0.0
2018-Feb-18 16:30N 29°41' W 094°12'0 0.0
2018-Feb-18 16:00N 29°41' W 094°12'0 0.5
2018-Feb-18 15:30N 29°41' W 094°12'1 2.7
2018-Feb-18 15:00N 29°41' W 094°10'1 2.3
2018-Feb-18 14:30N 29°42' W 094°09'0 0.8
2018-Feb-18 14:00N 29°42' W 094°09'0 0.0
2018-Feb-18 13:30N 29°42' W 094°09'0 0.0
2018-Feb-18 13:00N 29°42' W 094°09'0 0.0
2018-Feb-18 12:30N 29°42' W 094°09'0 0.0
2018-Feb-18 12:00N 29°42' W 094°09'0 0.0
2018-Feb-18 11:30N 29°42' W 094°09'0 0.0
2018-Feb-18 11:00N 29°42' W 094°09'0 0.0
2018-Feb-18 10:26N 29°42' W 094°09'0 0.0
2018-Feb-18 10:00N 29°42' W 094°09'0 0.0
2018-Feb-18 09:29N 29°42' W 094°09'0 0.0
2018-Feb-18 09:00N 29°42' W 094°09'0 0.0
2018-Feb-18 08:30N 29°42' W 094°09'0 0.0
2018-Feb-18 08:00N 29°42' W 094°09'0 0.1
2018-Feb-18 07:30N 29°42' W 094°09'1 2.1
2018-Feb-18 07:00N 29°43' W 094°08'1 1.7
2018-Feb-18 06:30N 29°43' W 094°07'2 3.7
2018-Feb-18 06:00N 29°44' W 094°05'0 0.5
2018-Feb-18 05:30N 29°45' W 094°05'0 0.0
2018-Feb-18 05:00N 29°45' W 094°05'0 0.0
2018-Feb-18 04:30N 29°45' W 094°05'0 0.1
2018-Feb-18 04:00N 29°45' W 094°05'0 0.0
2018-Feb-18 03:30N 29°45' W 094°05'0 0.0
2018-Feb-18 03:00N 29°45' W 094°05'0 0.0
2018-Feb-18 02:30N 29°45' W 094°05'0 0.0
2018-Feb-18 02:00N 29°45' W 094°05'0 0.1
2018-Feb-18 01:30N 29°45' W 094°05'1 2.8
2018-Feb-18 01:00N 29°45' W 094°04'2 4.8
2018-Feb-18 00:30N 29°47' W 094°02'2 4.8
2018-Feb-18 00:00N 29°49' W 093°60'2 3.8
2018-Feb-17 23:30N 29°49' W 093°58'3 5.3
2018-Feb-17 23:00N 29°52' W 093°56'3 5.1
2018-Feb-17 22:30N 29°54' W 093°54'3 5.4
2018-Feb-17 22:00N 29°56' W 093°52'3 5.3
2018-Feb-17 21:30N 29°58' W 093°51'0 0.3
2018-Feb-17 21:00N 29°58' W 093°51'0 0.2
2018-Feb-17 20:30N 29°58' W 093°51'0 0.4
2018-Feb-17 20:00N 29°58' W 093°51'3 5.1
2018-Feb-17 19:30N 29°59' W 093°54'1 2.9
2018-Feb-17 19:00N 29°60' W 093°55'0 0.0
2018-Feb-17 18:30N 29°60' W 093°55'0 0.0
2018-Feb-17 18:00N 29°60' W 093°55'0 0.0
2018-Feb-17 17:30N 29°60' W 093°55'0 0.0
2018-Feb-17 17:00N 29°60' W 093°55'1 1.8
2018-Feb-17 16:30N 29°60' W 093°56'2 3.3
2018-Feb-17 15:59N 30°01' W 093°58'0 0.0
2018-Feb-17 15:29N 30°01' W 093°58'0 0.0
2018-Feb-17 15:00N 30°01' W 093°58'0 0.0
2018-Feb-17 14:28N 30°01' W 093°58'0 0.0
2018-Feb-17 14:00N 30°01' W 093°58'0 0.0
2018-Feb-17 13:30N 30°01' W 093°58'0 0.0
2018-Feb-17 12:57N 30°01' W 093°58'0 0.0
2018-Feb-17 12:25N 30°01' W 093°58'0 0.0
2018-Feb-17 11:56N 30°01' W 093°58'0 0.0
2018-Feb-17 11:24N 30°01' W 093°58'0 0.0
2018-Feb-17 11:00N 30°01' W 093°58'0 0.0
2018-Feb-17 10:23N 30°01' W 093°58'0 0.0
2018-Feb-17 10:00N 30°01' W 093°58'0 0.0
2018-Feb-17 09:30N 30°01' W 093°58'0 0.0
2018-Feb-17 08:55N 30°01' W 093°58'0 0.0
2018-Feb-17 08:25N 30°01' W 093°58'0 0.0
2018-Feb-17 07:59N 30°01' W 093°58'0 0.0
2018-Feb-17 07:30N 30°01' W 093°58'0 0.0
2018-Feb-17 06:54N 30°01' W 093°58'0 0.0
2018-Feb-17 06:30N 30°01' W 093°58'0 0.0
2018-Feb-17 05:51N 30°01' W 093°58'0 0.0
2018-Feb-17 05:26N 30°01' W 093°58'0 0.0
2018-Feb-17 04:56N 30°01' W 093°58'0 0.0
2018-Feb-17 04:30N 30°01' W 093°58'0 0.0
2018-Feb-17 04:00N 30°01' W 093°58'0 0.0
2018-Feb-17 03:28N 30°01' W 093°58'0 0.0
2018-Feb-17 03:00N 30°01' W 093°58'0 0.0
2018-Feb-17 02:30N 30°01' W 093°58'0 0.0
2018-Feb-17 01:58N 30°01' W 093°58'0 0.0
2018-Feb-17 01:27N 30°01' W 093°58'0 0.0
2018-Feb-17 01:00N 30°01' W 093°58'0 0.0
2018-Feb-17 00:28N 30°01' W 093°58'0 0.0
2018-Feb-17 00:00N 30°01' W 093°58'0 0.0
2018-Feb-16 23:30N 30°01' W 093°58'0 0.0
2018-Feb-16 22:57N 30°01' W 093°58'0 0.0
2018-Feb-16 22:28N 30°01' W 093°58'0 0.0
2018-Feb-16 22:00N 30°01' W 093°58'0 0.0
2018-Feb-16 21:29N 30°01' W 093°58'0 0.0
2018-Feb-16 21:00N 30°01' W 093°58'0 0.0
2018-Feb-16 20:17N 30°01' W 093°58'0 0.0
2018-Feb-16 19:58N 30°01' W 093°58'0 0.0
2018-Feb-16 19:30N 30°01' W 093°58'0 0.0
2018-Feb-16 19:00N 30°01' W 093°58'0 0.0
2018-Feb-16 18:30N 30°01' W 093°58'1 2.7
2018-Feb-16 18:00N 29°60' W 093°57'1 2.9
2018-Feb-16 17:30N 29°60' W 093°55'0 0.7
2018-Feb-16 17:00N 29°60' W 093°55'0 0.0
2018-Feb-16 16:30N 29°60' W 093°55'0 0.0
2018-Feb-16 16:00N 29°60' W 093°55'0 0.0
2018-Feb-16 15:30N 29°60' W 093°55'0 0.0
2018-Feb-16 15:00N 29°60' W 093°55'0 0.0
2018-Feb-16 14:30N 29°60' W 093°55'0 0.0
2018-Feb-16 14:00N 29°60' W 093°55'0 0.0
2018-Feb-16 13:30N 29°60' W 093°55'0 0.0
2018-Feb-16 13:00N 29°60' W 093°55'0 0.0
2018-Feb-16 12:30N 29°60' W 093°55'0 0.0
2018-Feb-16 12:00N 29°60' W 093°55'0 0.0
2018-Feb-16 11:30N 29°60' W 093°55'0 0.0
2018-Feb-16 11:00N 29°60' W 093°55'0 0.0
2018-Feb-16 10:30N 29°60' W 093°55'0 0.0
2018-Feb-16 10:00N 29°60' W 093°55'0 0.0
2018-Feb-16 09:30N 29°60' W 093°55'0 0.0
2018-Feb-16 09:00N 29°60' W 093°55'0 0.0
2018-Feb-16 08:30N 29°60' W 093°55'0 0.0
2018-Feb-16 08:00N 29°60' W 093°55'0 0.0
2018-Feb-16 07:30N 29°60' W 093°55'0 0.0
2018-Feb-16 07:00N 29°60' W 093°55'0 0.0
2018-Feb-16 06:30N 29°60' W 093°55'0 0.0
2018-Feb-16 06:00N 29°60' W 093°55'0 0.0
2018-Feb-16 05:30N 29°60' W 093°55'0 0.0
2018-Feb-16 05:00N 29°60' W 093°55'0 0.0
2018-Feb-16 04:30N 29°60' W 093°55'0 0.0
2018-Feb-16 04:00N 29°60' W 093°55'0 0.0
2018-Feb-16 03:30N 29°60' W 093°55'0 0.0
2018-Feb-16 03:00N 29°60' W 093°55'0 0.0
2018-Feb-16 02:30N 29°60' W 093°55'0 0.0
2018-Feb-16 02:00N 29°60' W 093°55'0 0.0
2018-Feb-16 01:30N 29°60' W 093°55'0 0.0
2018-Feb-16 01:00N 29°60' W 093°55'0 0.0
2018-Feb-16 00:30N 29°60' W 093°55'0 0.0
2018-Feb-16 00:00N 29°60' W 093°55'0 0.0
2018-Feb-15 23:30N 29°60' W 093°55'0 0.0
2018-Feb-15 23:00N 29°60' W 093°55'0 0.0
2018-Feb-15 22:30N 29°60' W 093°55'0 0.0
2018-Feb-15 22:00N 29°60' W 093°55'0 0.0
2018-Feb-15 21:30N 29°60' W 093°55'0 0.0
2018-Feb-15 21:00N 29°60' W 093°55'0 0.0
2018-Feb-15 20:30N 29°60' W 093°55'0 0.0
2018-Feb-15 20:00N 29°60' W 093°55'0 0.0
2018-Feb-15 19:30N 29°60' W 093°55'0 0.0
2018-Feb-15 19:00N 29°60' W 093°55'0 0.0
2018-Feb-15 18:30N 29°60' W 093°55'0 0.0
2018-Feb-15 18:00N 29°60' W 093°55'0 0.2
2018-Feb-15 17:30N 29°60' W 093°55'2 4.5
2018-Feb-15 17:01N 30°01' W 093°57'0 0.2
2018-Feb-15 16:30N 30°01' W 093°57'2 4.8
2018-Feb-15 16:00N 29°60' W 093°55'0 0.1
2018-Feb-15 15:30N 29°60' W 093°55'0 0.0
2018-Feb-15 15:00N 29°60' W 093°55'0 0.0
2018-Feb-15 14:30N 29°60' W 093°55'0 0.0
2018-Feb-15 14:00N 29°60' W 093°55'0 0.0
2018-Feb-15 13:30N 29°60' W 093°55'0 0.0
2018-Feb-15 13:00N 29°60' W 093°55'0 0.0
2018-Feb-15 12:30N 29°60' W 093°55'0 0.0
2018-Feb-15 12:00N 29°60' W 093°55'0 0.0
2018-Feb-15 11:30N 29°60' W 093°55'0 0.0
2018-Feb-15 11:00N 29°60' W 093°55'0 0.0
2018-Feb-15 10:30N 29°60' W 093°55'0 0.0
2018-Feb-15 10:00N 29°60' W 093°55'0 0.0
2018-Feb-15 09:30N 29°60' W 093°55'0 0.0
2018-Feb-15 09:00N 29°60' W 093°55'0 0.0
2018-Feb-15 08:30N 29°60' W 093°55'0 0.0
2018-Feb-15 08:00N 29°60' W 093°55'0 0.0
2018-Feb-15 07:30N 29°60' W 093°55'0 0.0
2018-Feb-15 07:00N 29°60' W 093°55'0 0.0
2018-Feb-15 06:30N 29°60' W 093°55'0 0.0
2018-Feb-15 06:00N 29°60' W 093°55'0 0.0
2018-Feb-15 05:30N 29°60' W 093°55'0 0.0
2018-Feb-15 05:00N 29°60' W 093°55'0 0.0
2018-Feb-15 04:30N 29°60' W 093°55'0 0.0
2018-Feb-15 04:00N 29°60' W 093°55'0 0.0
2018-Feb-15 03:30N 29°60' W 093°55'0 0.0
2018-Feb-15 03:00N 29°60' W 093°55'0 0.0
2018-Feb-15 02:30N 29°60' W 093°55'0 0.0
2018-Feb-15 02:00N 29°60' W 093°55'0 0.0
2018-Feb-15 01:30N 29°60' W 093°55'0 0.0
2018-Feb-15 01:00N 29°60' W 093°55'0 0.0
2018-Feb-15 00:30N 29°60' W 093°55'0 0.0
2018-Feb-15 00:00N 29°60' W 093°55'0 0.0
2018-Feb-14 23:30N 29°60' W 093°55'0 0.0
2018-Feb-14 23:00N 29°60' W 093°55'0 0.0
2018-Feb-14 22:29N 29°60' W 093°55'0 0.0
2018-Feb-14 22:00N 29°60' W 093°55'0 0.0
2018-Feb-14 21:30N 29°60' W 093°55'0 0.0
2018-Feb-14 21:00N 29°60' W 093°55'0 0.0
2018-Feb-14 20:30N 29°60' W 093°55'0 0.0
2018-Feb-14 20:00N 29°60' W 093°55'1 1.7
2018-Feb-14 19:30N 29°59' W 093°54'2 4.8
2018-Feb-14 19:00N 29°58' W 093°51'0 0.7
2018-Feb-14 18:30N 29°58' W 093°52'0 0.0
2018-Feb-14 18:00N 29°58' W 093°52'0 0.0
2018-Feb-14 17:30N 29°58' W 093°52'0 0.0
2018-Feb-14 17:00N 29°58' W 093°52'0 0.0
2018-Feb-14 16:30N 29°58' W 093°52'0 0.0
2018-Feb-14 16:00N 29°58' W 093°52'0 0.0
2018-Feb-14 15:30N 29°58' W 093°52'0 0.0
2018-Feb-14 15:00N 29°58' W 093°52'1 2.7
2018-Feb-14 14:30N 29°59' W 093°53'2 3.9
2018-Feb-14 14:00N 29°60' W 093°55'0 0.0
2018-Feb-14 13:30N 29°60' W 093°55'0 0.0
2018-Feb-14 13:00N 29°60' W 093°55'0 0.0
2018-Feb-14 12:30N 29°60' W 093°55'0 0.0
2018-Feb-14 12:00N 29°60' W 093°55'0 0.0
2018-Feb-14 11:30N 29°60' W 093°55'0 0.0
2018-Feb-14 11:00N 29°60' W 093°55'0 0.0
2018-Feb-14 10:30N 29°60' W 093°55'0 0.0
2018-Feb-14 10:00N 29°60' W 093°55'0 0.0
2018-Feb-14 09:30N 29°60' W 093°55'0 0.0
2018-Feb-14 09:00N 29°60' W 093°55'0 0.0
2018-Feb-14 08:30N 29°60' W 093°55'0 0.0
2018-Feb-14 08:00N 29°60' W 093°55'0 0.0
2018-Feb-14 07:30N 29°60' W 093°55'0 0.0
2018-Feb-14 07:00N 29°60' W 093°55'0 0.0
2018-Feb-14 06:30N 29°60' W 093°55'0 0.0
2018-Feb-14 06:00N 29°60' W 093°55'0 0.0
2018-Feb-14 05:30N 29°60' W 093°55'0 0.0
2018-Feb-14 05:00N 29°60' W 093°55'0 0.0
2018-Feb-14 04:30N 29°60' W 093°55'0 0.0
2018-Feb-14 04:00N 29°60' W 093°55'0 0.0
2018-Feb-14 03:30N 29°60' W 093°55'0 0.0
2018-Feb-14 03:00N 29°60' W 093°55'0 0.0
2018-Feb-14 02:30N 29°60' W 093°55'0 0.0
2018-Feb-14 02:00N 29°60' W 093°55'0 0.0
2018-Feb-14 01:30N 29°60' W 093°55'0 0.0
2018-Feb-14 01:00N 29°60' W 093°55'0 0.0
2018-Feb-14 00:30N 29°60' W 093°55'0 0.0
2018-Feb-13 23:59N 29°60' W 093°55'0 0.0
2018-Feb-13 23:30N 29°60' W 093°55'0 0.0
2018-Feb-13 23:00N 29°60' W 093°55'0 0.0
2018-Feb-13 22:30N 29°60' W 093°55'0 0.0
2018-Feb-13 22:00N 29°60' W 093°55'0 0.0
2018-Feb-13 21:30N 29°60' W 093°55'0 0.0
2018-Feb-13 21:00N 29°60' W 093°55'0 0.0
2018-Feb-13 20:30N 29°60' W 093°55'0 0.0
2018-Feb-13 20:00N 29°60' W 093°55'0 0.0
2018-Feb-13 19:30N 29°60' W 093°55'0 0.0
2018-Feb-13 19:00N 29°60' W 093°55'0 0.0
2018-Feb-13 18:30N 29°60' W 093°55'0 0.0
2018-Feb-13 18:00N 29°60' W 093°55'0 0.0
2018-Feb-13 17:30N 29°60' W 093°55'0 0.0
2018-Feb-13 17:00N 29°60' W 093°55'0 0.0
2018-Feb-13 16:30N 29°60' W 093°55'0 0.0
2018-Feb-13 16:00N 29°60' W 093°55'0 0.0
2018-Feb-13 15:29N 29°60' W 093°55'0 0.0
2018-Feb-13 15:00N 29°60' W 093°55'0 0.0
2018-Feb-13 14:30N 29°60' W 093°55'0 0.0
2018-Feb-13 14:00N 29°60' W 093°55'0 0.0
2018-Feb-13 13:30N 29°60' W 093°55'0 0.0
2018-Feb-13 13:00N 29°60' W 093°55'0 0.0
2018-Feb-13 12:30N 29°60' W 093°55'0 0.0
2018-Feb-13 12:00N 29°60' W 093°55'0 0.0
2018-Feb-13 11:30N 29°60' W 093°55'0 0.0
2018-Feb-13 11:00N 29°60' W 093°55'0 0.0
2018-Feb-13 10:30N 29°60' W 093°55'0 0.5
2018-Feb-13 10:00N 29°60' W 093°55'1 1.6
2018-Feb-13 09:30N 29°59' W 093°54'0 0.6
2018-Feb-13 09:00N 29°59' W 093°54'2 4.1
2018-Feb-13 08:30N 29°58' W 093°51'3 6.5
2018-Feb-13 08:00N 29°55' W 093°53'3 6.8
2018-Feb-13 07:30N 29°53' W 093°56'3 6.3
2018-Feb-13 07:00N 29°50' W 093°57'2 3.5
2018-Feb-13 06:30N 29°49' W 093°59'1 2.4
2018-Feb-13 06:00N 29°48' W 094°00'2 4.6
2018-Feb-13 05:30N 29°47' W 094°02'2 4.6
2018-Feb-13 05:00N 29°45' W 094°04'2 4.6
2018-Feb-13 04:29N 29°44' W 094°06'2 4.0
2018-Feb-13 04:00N 29°42' W 094°08'2 4.5
2018-Feb-13 03:30N 29°41' W 094°10'2 4.2
2018-Feb-13 03:00N 29°41' W 094°12'2 4.3
2018-Feb-13 02:30N 29°40' W 094°15'2 4.3
2018-Feb-13 02:00N 29°39' W 094°17'2 4.1
2018-Feb-13 01:29N 29°38' W 094°19'2 4.0
2018-Feb-13 00:58N 29°37' W 094°21'2 3.9
2018-Feb-13 00:26N 29°36' W 094°23'2 2.9
2018-Feb-12 23:53N 29°35' W 094°25'1 2.2
2018-Feb-12 23:21N 29°34' W 094°25'  
Track history (hours):
 
Tides and Currents Weather Stations Pressure Air Temp Water Temp Dewpoint Dewpoint Depression Visibility Wind Speed Wind Dir Waves Ship Positions

Janice Tyson

Owner: Florida Marine, LLC, Mandeville, LA. More information available from US FCC via Universal Licensing System and Coast Guard Vessel Documentation Center.

Last reported at 2018-Feb-22 23:00 UTC. Time now 2018-Feb-22 23:02 UTC.
Position N 29°58' W 093°51'.

Length 27 m; draft 3 m.

Type: Towing. MMSI: 367087180.

Date/timePositionNaut miles runAvg speedWind from/ knotsBaromVisibWave heightAir tempDewpointWater temp
2018-Feb-22 23:00N 29°58' W 093°51'0 0.3
2018-Feb-22 22:30N 29°58' W 093°51'1 2.4
2018-Feb-22 22:00N 29°57' W 093°52'1 2.2
2018-Feb-22 21:30N 29°56' W 093°52'3 5.3
2018-Feb-22 21:00N 29°54' W 093°54'3 5.1
2018-Feb-22 20:30N 29°52' W 093°56'2 4.6
2018-Feb-22 20:00N 29°50' W 093°57'2 3.7
2018-Feb-22 19:30N 29°49' W 093°59'1 2.0
2018-Feb-22 19:00N 29°49' W 093°60'2 4.0
2018-Feb-22 18:30N 29°47' W 094°01'1 2.4
2018-Feb-22 18:00N 29°46' W 094°02'2 4.3
2018-Feb-22 17:30N 29°45' W 094°04'2 4.4
2018-Feb-22 17:00N 29°44' W 094°06'2 4.7
2018-Feb-22 16:30N 29°42' W 094°09'2 4.4
2018-Feb-22 16:00N 29°41' W 094°11'2 4.3
2018-Feb-22 15:30N 29°40' W 094°13'2 3.5
2018-Feb-22 15:00N 29°40' W 094°15'2 4.1
2018-Feb-22 14:30N 29°39' W 094°17'1 2.8
2018-Feb-22 14:00N 29°38' W 094°18'0 0.6
2018-Feb-22 13:30N 29°38' W 094°19'0 0.0
2018-Feb-22 13:00N 29°38' W 094°19'0 0.0
2018-Feb-22 12:30N 29°38' W 094°19'0 0.0
2018-Feb-22 11:56N 29°38' W 094°19'0 0.0
2018-Feb-22 11:30N 29°38' W 094°19'0 0.0
2018-Feb-22 10:59N 29°38' W 094°19'0 0.0
2018-Feb-22 10:30N 29°38' W 094°19'0 0.0
2018-Feb-22 09:57N 29°38' W 094°19'0 0.0
2018-Feb-22 09:29N 29°38' W 094°19'0 0.0
2018-Feb-22 08:58N 29°38' W 094°19'0 0.2
2018-Feb-22 08:30N 29°38' W 094°19'0 0.9
2018-Feb-22 07:59N 29°38' W 094°19'1 2.3
2018-Feb-22 07:30N 29°37' W 094°20'2 1.0
2018-Feb-22 05:34N 29°36' W 094°22'0 0.0
2018-Feb-22 05:28N 29°36' W 094°22'0 0.0
2018-Feb-22 04:24N 29°36' W 094°22'0 0.0
2018-Feb-22 03:51N 29°36' W 094°22'0 0.0
2018-Feb-22 03:30N 29°36' W 094°22'0 0.1
2018-Feb-22 02:47N 29°36' W 094°22'1 1.5
2018-Feb-22 02:22N 29°36' W 094°23'3 1.1
2018-Feb-21 23:41N 29°34' W 094°26'0 0.0
2018-Feb-21 23:24N 29°34' W 094°26'0 0.0
2018-Feb-21 22:53N 29°34' W 094°26'0 0.0
2018-Feb-21 21:28N 29°34' W 094°26'0 0.0
2018-Feb-21 20:49N 29°34' W 094°26'0 0.3
2018-Feb-21 20:30N 29°34' W 094°26'0 0.4
2018-Feb-21 19:58N 29°34' W 094°26'27 2.0
2018-Feb-21 06:32N 29°22' W 094°53'0 0.0
2018-Feb-21 06:12N 29°22' W 094°53'0 0.0
2018-Feb-21 05:56N 29°22' W 094°53'0 0.1
2018-Feb-21 05:28N 29°22' W 094°54'0 0.0
2018-Feb-21 04:59N 29°22' W 094°54'0 0.0
2018-Feb-21 04:26N 29°22' W 094°54'0 0.0
2018-Feb-20 23:02N 29°22' W 094°53'0 0.0
2018-Feb-20 22:14N 29°22' W 094°53'0 0.0
2018-Feb-20 17:25N 29°22' W 094°53'0 0.0
2018-Feb-20 17:00N 29°22' W 094°53'0 0.3
2018-Feb-20 16:26N 29°22' W 094°53'0 0.1
2018-Feb-20 14:52N 29°22' W 094°53'0 0.0
2018-Feb-20 14:29N 29°22' W 094°53'0 0.0
2018-Feb-20 13:58N 29°22' W 094°53'0 0.0
2018-Feb-20 13:19N 29°22' W 094°53'0 0.8
2018-Feb-20 13:00N 29°22' W 094°54'0 0.3
2018-Feb-20 12:18N 29°22' W 094°53'0 0.0
2018-Feb-20 11:50N 29°22' W 094°53'0 0.0
2018-Feb-20 11:26N 29°22' W 094°53'0 0.0
2018-Feb-20 10:43N 29°22' W 094°53'0 0.0
2018-Feb-20 10:25N 29°22' W 094°53'0 0.0
2018-Feb-20 09:51N 29°22' W 094°53'0 0.0
2018-Feb-20 09:29N 29°22' W 094°53'0 0.0
2018-Feb-20 08:56N 29°22' W 094°53'0 0.0
2018-Feb-20 08:17N 29°22' W 094°53'0 0.0
2018-Feb-20 07:58N 29°22' W 094°53'0 0.0
2018-Feb-20 07:29N 29°22' W 094°53'0 0.0
2018-Feb-20 07:00N 29°22' W 094°53'0 0.0
2018-Feb-20 06:26N 29°22' W 094°53'0 0.2
2018-Feb-20 04:23N 29°22' W 094°53'3 7.3
2018-Feb-20 03:59N 29°22' W 094°50'4 4.6
2018-Feb-20 03:07N 29°24' W 094°46'1 0.2
2018-Feb-19 21:25N 29°24' W 094°45'0 0.0
2018-Feb-19 20:44N 29°24' W 094°45'0 0.0
2018-Feb-19 20:30N 29°24' W 094°45'1 1.0
2018-Feb-19 19:48N 29°25' W 094°44'5 3.5
2018-Feb-19 18:18N 29°28' W 094°39'1 3.7
2018-Feb-19 18:00N 29°28' W 094°38'2 3.8
2018-Feb-19 17:30N 29°29' W 094°36'2 3.5
2018-Feb-19 16:59N 29°30' W 094°34'2 4.5
2018-Feb-19 16:29N 29°31' W 094°32'2 4.4
2018-Feb-19 15:59N 29°31' W 094°30'2 3.3
2018-Feb-19 15:29N 29°33' W 094°28'0 0.0
2018-Feb-19 14:51N 29°33' W 094°28'0 0.0
2018-Feb-19 14:30N 29°33' W 094°28'0 0.4
2018-Feb-19 13:58N 29°33' W 094°28'2 3.5
2018-Feb-19 13:30N 29°34' W 094°27'0 0.6
2018-Feb-19 12:57N 29°34' W 094°26'0 0.0
2018-Feb-19 12:30N 29°34' W 094°26'0 0.1
2018-Feb-19 12:00N 29°34' W 094°26'1 1.7
2018-Feb-19 11:30N 29°34' W 094°25'0 0.1
2018-Feb-19 11:00N 29°34' W 094°25'0 0.0
2018-Feb-19 10:30N 29°34' W 094°25'0 0.0
2018-Feb-19 10:00N 29°34' W 094°25'0 0.0
2018-Feb-19 09:30N 29°34' W 094°25'0 0.0
2018-Feb-19 09:00N 29°34' W 094°25'0 0.0
2018-Feb-19 08:30N 29°34' W 094°25'0 0.0
2018-Feb-19 08:00N 29°34' W 094°25'0 0.0
2018-Feb-19 07:30N 29°34' W 094°25'0 0.0
2018-Feb-19 07:00N 29°34' W 094°25'0 0.0
2018-Feb-19 06:30N 29°34' W 094°25'0 0.0
2018-Feb-19 06:00N 29°34' W 094°25'0 0.0
2018-Feb-19 05:30N 29°34' W 094°25'0 0.0
2018-Feb-19 05:00N 29°34' W 094°25'0 0.0
2018-Feb-19 04:30N 29°34' W 094°25'0 0.0
2018-Feb-19 04:00N 29°34' W 094°25'0 0.0
2018-Feb-19 03:30N 29°34' W 094°25'0 0.0
2018-Feb-19 03:00N 29°34' W 094°25'0 0.0
2018-Feb-19 02:30N 29°34' W 094°25'0 0.0
2018-Feb-19 02:01N 29°34' W 094°25'0 0.0
2018-Feb-19 01:30N 29°34' W 094°25'0 0.0
2018-Feb-19 00:59N 29°34' W 094°25'0 0.0
2018-Feb-19 00:25N 29°34' W 094°25'0 0.0
2018-Feb-18 23:59N 29°34' W 094°25'0 0.1
2018-Feb-18 23:30N 29°34' W 094°25'0 0.0
2018-Feb-18 22:59N 29°34' W 094°25'1 2.1
2018-Feb-18 22:29N 29°35' W 094°25'2 3.2
2018-Feb-18 22:00N 29°36' W 094°23'2 3.7
2018-Feb-18 21:30N 29°37' W 094°21'2 4.1
2018-Feb-18 21:00N 29°38' W 094°19'1 2.4
2018-Feb-18 20:30N 29°38' W 094°18'0 0.0
2018-Feb-18 19:59N 29°38' W 094°18'1 1.9
2018-Feb-18 19:30N 29°39' W 094°17'1 2.0
2018-Feb-18 19:00N 29°39' W 094°16'1 2.8
2018-Feb-18 18:30N 29°40' W 094°15'2 3.2
2018-Feb-18 18:00N 29°40' W 094°13'1 2.2
2018-Feb-18 17:30N 29°41' W 094°12'0 0.0
2018-Feb-18 17:00N 29°41' W 094°12'0 0.0
2018-Feb-18 16:30N 29°41' W 094°12'0 0.0
2018-Feb-18 16:00N 29°41' W 094°12'0 0.5
2018-Feb-18 15:30N 29°41' W 094°12'1 2.7
2018-Feb-18 15:00N 29°41' W 094°10'1 2.3
2018-Feb-18 14:30N 29°42' W 094°09'0 0.8
2018-Feb-18 14:00N 29°42' W 094°09'0 0.0
2018-Feb-18 13:30N 29°42' W 094°09'0 0.0
2018-Feb-18 13:00N 29°42' W 094°09'0 0.0
2018-Feb-18 12:30N 29°42' W 094°09'0 0.0
2018-Feb-18 12:00N 29°42' W 094°09'0 0.0
2018-Feb-18 11:30N 29°42' W 094°09'0 0.0
2018-Feb-18 11:00N 29°42' W 094°09'0 0.0
2018-Feb-18 10:26N 29°42' W 094°09'0 0.0
2018-Feb-18 10:00N 29°42' W 094°09'0 0.0
2018-Feb-18 09:29N 29°42' W 094°09'0 0.0
2018-Feb-18 09:00N 29°42' W 094°09'0 0.0
2018-Feb-18 08:30N 29°42' W 094°09'0 0.0
2018-Feb-18 08:00N 29°42' W 094°09'0 0.1
2018-Feb-18 07:30N 29°42' W 094°09'1 2.1
2018-Feb-18 07:00N 29°43' W 094°08'1 1.7
2018-Feb-18 06:30N 29°43' W 094°07'2 3.7
2018-Feb-18 06:00N 29°44' W 094°05'0 0.5
2018-Feb-18 05:30N 29°45' W 094°05'0 0.0
2018-Feb-18 05:00N 29°45' W 094°05'0 0.0
2018-Feb-18 04:30N 29°45' W 094°05'0 0.1
2018-Feb-18 04:00N 29°45' W 094°05'0 0.0
2018-Feb-18 03:30N 29°45' W 094°05'0 0.0
2018-Feb-18 03:00N 29°45' W 094°05'0 0.0
2018-Feb-18 02:30N 29°45' W 094°05'0 0.0
2018-Feb-18 02:00N 29°45' W 094°05'0 0.1
2018-Feb-18 01:30N 29°45' W 094°05'1 2.8
2018-Feb-18 01:00N 29°45' W 094°04'2 4.8
2018-Feb-18 00:30N 29°47' W 094°02'2 4.8
2018-Feb-18 00:00N 29°49' W 093°60'2 3.8
2018-Feb-17 23:30N 29°49' W 093°58'3 5.3
2018-Feb-17 23:00N 29°52' W 093°56'3 5.1
2018-Feb-17 22:30N 29°54' W 093°54'3 5.4
2018-Feb-17 22:00N 29°56' W 093°52'3 5.3
2018-Feb-17 21:30N 29°58' W 093°51'0 0.3
2018-Feb-17 21:00N 29°58' W 093°51'0 0.2
2018-Feb-17 20:30N 29°58' W 093°51'0 0.4
2018-Feb-17 20:00N 29°58' W 093°51'3 5.1
2018-Feb-17 19:30N 29°59' W 093°54'1 2.9
2018-Feb-17 19:00N 29°60' W 093°55'0 0.0
2018-Feb-17 18:30N 29°60' W 093°55'0 0.0
2018-Feb-17 18:00N 29°60' W 093°55'0 0.0
2018-Feb-17 17:30N 29°60' W 093°55'0 0.0
2018-Feb-17 17:00N 29°60' W 093°55'1 1.8
2018-Feb-17 16:30N 29°60' W 093°56'2 3.3
2018-Feb-17 15:59N 30°01' W 093°58'0 0.0
2018-Feb-17 15:29N 30°01' W 093°58'0 0.0
2018-Feb-17 15:00N 30°01' W 093°58'0 0.0
2018-Feb-17 14:28N 30°01' W 093°58'0 0.0
2018-Feb-17 14:00N 30°01' W 093°58'0 0.0
2018-Feb-17 13:30N 30°01' W 093°58'0 0.0
2018-Feb-17 12:57N 30°01' W 093°58'0 0.0
2018-Feb-17 12:25N 30°01' W 093°58'0 0.0
2018-Feb-17 11:56N 30°01' W 093°58'0 0.0
2018-Feb-17 11:24N 30°01' W 093°58'0 0.0
2018-Feb-17 11:00N 30°01' W 093°58'0 0.0
2018-Feb-17 10:23N 30°01' W 093°58'0 0.0
2018-Feb-17 10:00N 30°01' W 093°58'0 0.0
2018-Feb-17 09:30N 30°01' W 093°58'0 0.0
2018-Feb-17 08:55N 30°01' W 093°58'0 0.0
2018-Feb-17 08:25N 30°01' W 093°58'0 0.0
2018-Feb-17 07:59N 30°01' W 093°58'0 0.0
2018-Feb-17 07:30N 30°01' W 093°58'0 0.0
2018-Feb-17 06:54N 30°01' W 093°58'0 0.0
2018-Feb-17 06:30N 30°01' W 093°58'0 0.0
2018-Feb-17 05:51N 30°01' W 093°58'0 0.0
2018-Feb-17 05:26N 30°01' W 093°58'0 0.0
2018-Feb-17 04:56N 30°01' W 093°58'0 0.0
2018-Feb-17 04:30N 30°01' W 093°58'0 0.0
2018-Feb-17 04:00N 30°01' W 093°58'0 0.0
2018-Feb-17 03:28N 30°01' W 093°58'0 0.0
2018-Feb-17 03:00N 30°01' W 093°58'0 0.0
2018-Feb-17 02:30N 30°01' W 093°58'0 0.0
2018-Feb-17 01:58N 30°01' W 093°58'0 0.0
2018-Feb-17 01:27N 30°01' W 093°58'0 0.0
2018-Feb-17 01:00N 30°01' W 093°58'0 0.0
2018-Feb-17 00:28N 30°01' W 093°58'0 0.0
2018-Feb-17 00:00N 30°01' W 093°58'0 0.0
2018-Feb-16 23:30N 30°01' W 093°58'0 0.0
2018-Feb-16 22:57N 30°01' W 093°58'0 0.0
2018-Feb-16 22:28N 30°01' W 093°58'0 0.0
2018-Feb-16 22:00N 30°01' W 093°58'0 0.0
2018-Feb-16 21:29N 30°01' W 093°58'0 0.0
2018-Feb-16 21:00N 30°01' W 093°58'0 0.0
2018-Feb-16 20:17N 30°01' W 093°58'0 0.0
2018-Feb-16 19:58N 30°01' W 093°58'0 0.0
2018-Feb-16 19:30N 30°01' W 093°58'0 0.0
2018-Feb-16 19:00N 30°01' W 093°58'0 0.0
2018-Feb-16 18:30N 30°01' W 093°58'1 2.7
2018-Feb-16 18:00N 29°60' W 093°57'1 2.9
2018-Feb-16 17:30N 29°60' W 093°55'0 0.7
2018-Feb-16 17:00N 29°60' W 093°55'0 0.0
2018-Feb-16 16:30N 29°60' W 093°55'0 0.0
2018-Feb-16 16:00N 29°60' W 093°55'0 0.0
2018-Feb-16 15:30N 29°60' W 093°55'0 0.0
2018-Feb-16 15:00N 29°60' W 093°55'0 0.0
2018-Feb-16 14:30N 29°60' W 093°55'0 0.0
2018-Feb-16 14:00N 29°60' W 093°55'0 0.0
2018-Feb-16 13:30N 29°60' W 093°55'0 0.0
2018-Feb-16 13:00N 29°60' W 093°55'0 0.0
2018-Feb-16 12:30N 29°60' W 093°55'0 0.0
2018-Feb-16 12:00N 29°60' W 093°55'0 0.0
2018-Feb-16 11:30N 29°60' W 093°55'0 0.0
2018-Feb-16 11:00N 29°60' W 093°55'0 0.0
2018-Feb-16 10:30N 29°60' W 093°55'0 0.0
2018-Feb-16 10:00N 29°60' W 093°55'0 0.0
2018-Feb-16 09:30N 29°60' W 093°55'0 0.0
2018-Feb-16 09:00N 29°60' W 093°55'0 0.0
2018-Feb-16 08:30N 29°60' W 093°55'0 0.0
2018-Feb-16 08:00N 29°60' W 093°55'0 0.0
2018-Feb-16 07:30N 29°60' W 093°55'0 0.0
2018-Feb-16 07:00N 29°60' W 093°55'0 0.0
2018-Feb-16 06:30N 29°60' W 093°55'0 0.0
2018-Feb-16 06:00N 29°60' W 093°55'0 0.0
2018-Feb-16 05:30N 29°60' W 093°55'0 0.0
2018-Feb-16 05:00N 29°60' W 093°55'0 0.0
2018-Feb-16 04:30N 29°60' W 093°55'0 0.0
2018-Feb-16 04:00N 29°60' W 093°55'0 0.0
2018-Feb-16 03:30N 29°60' W 093°55'0 0.0
2018-Feb-16 03:00N 29°60' W 093°55'0 0.0
2018-Feb-16 02:30N 29°60' W 093°55'0 0.0
2018-Feb-16 02:00N 29°60' W 093°55'0 0.0
2018-Feb-16 01:30N 29°60' W 093°55'0 0.0
2018-Feb-16 01:00N 29°60' W 093°55'0 0.0
2018-Feb-16 00:30N 29°60' W 093°55'0 0.0
2018-Feb-16 00:00N 29°60' W 093°55'0 0.0
2018-Feb-15 23:30N 29°60' W 093°55'0 0.0
2018-Feb-15 23:00N 29°60' W 093°55'0 0.0
2018-Feb-15 22:30N 29°60' W 093°55'0 0.0
2018-Feb-15 22:00N 29°60' W 093°55'0 0.0
2018-Feb-15 21:30N 29°60' W 093°55'0 0.0
2018-Feb-15 21:00N 29°60' W 093°55'0 0.0
2018-Feb-15 20:30N 29°60' W 093°55'0 0.0
2018-Feb-15 20:00N 29°60' W 093°55'0 0.0
2018-Feb-15 19:30N 29°60' W 093°55'0 0.0
2018-Feb-15 19:00N 29°60' W 093°55'0 0.0
2018-Feb-15 18:30N 29°60' W 093°55'0 0.0
2018-Feb-15 18:00N 29°60' W 093°55'0 0.2
2018-Feb-15 17:30N 29°60' W 093°55'2 4.5
2018-Feb-15 17:01N 30°01' W 093°57'0 0.2
2018-Feb-15 16:30N 30°01' W 093°57'2 4.8
2018-Feb-15 16:00N 29°60' W 093°55'0 0.1
2018-Feb-15 15:30N 29°60' W 093°55'0 0.0
2018-Feb-15 15:00N 29°60' W 093°55'0 0.0
2018-Feb-15 14:30N 29°60' W 093°55'0 0.0
2018-Feb-15 14:00N 29°60' W 093°55'0 0.0
2018-Feb-15 13:30N 29°60' W 093°55'0 0.0
2018-Feb-15 13:00N 29°60' W 093°55'0 0.0
2018-Feb-15 12:30N 29°60' W 093°55'0 0.0
2018-Feb-15 12:00N 29°60' W 093°55'0 0.0
2018-Feb-15 11:30N 29°60' W 093°55'0 0.0
2018-Feb-15 11:00N 29°60' W 093°55'0 0.0
2018-Feb-15 10:30N 29°60' W 093°55'0 0.0
2018-Feb-15 10:00N 29°60' W 093°55'0 0.0
2018-Feb-15 09:30N 29°60' W 093°55'0 0.0
2018-Feb-15 09:00N 29°60' W 093°55'0 0.0
2018-Feb-15 08:30N 29°60' W 093°55'0 0.0
2018-Feb-15 08:00N 29°60' W 093°55'0 0.0
2018-Feb-15 07:30N 29°60' W 093°55'0 0.0
2018-Feb-15 07:00N 29°60' W 093°55'0 0.0
2018-Feb-15 06:30N 29°60' W 093°55'0 0.0
2018-Feb-15 06:00N 29°60' W 093°55'0 0.0
2018-Feb-15 05:30N 29°60' W 093°55'0 0.0
2018-Feb-15 05:00N 29°60' W 093°55'0 0.0
2018-Feb-15 04:30N 29°60' W 093°55'0 0.0
2018-Feb-15 04:00N 29°60' W 093°55'0 0.0
2018-Feb-15 03:30N 29°60' W 093°55'0 0.0
2018-Feb-15 03:00N 29°60' W 093°55'0 0.0
2018-Feb-15 02:30N 29°60' W 093°55'0 0.0
2018-Feb-15 02:00N 29°60' W 093°55'0 0.0
2018-Feb-15 01:30N 29°60' W 093°55'0 0.0
2018-Feb-15 01:00N 29°60' W 093°55'0 0.0
2018-Feb-15 00:30N 29°60' W 093°55'0 0.0
2018-Feb-15 00:00N 29°60' W 093°55'0 0.0
2018-Feb-14 23:30N 29°60' W 093°55'0 0.0
2018-Feb-14 23:00N 29°60' W 093°55'0 0.0
2018-Feb-14 22:29N 29°60' W 093°55'0 0.0
2018-Feb-14 22:00N 29°60' W 093°55'0 0.0
2018-Feb-14 21:30N 29°60' W 093°55'0 0.0
2018-Feb-14 21:00N 29°60' W 093°55'0 0.0
2018-Feb-14 20:30N 29°60' W 093°55'0 0.0
2018-Feb-14 20:00N 29°60' W 093°55'1 1.7
2018-Feb-14 19:30N 29°59' W 093°54'2 4.8
2018-Feb-14 19:00N 29°58' W 093°51'0 0.7
2018-Feb-14 18:30N 29°58' W 093°52'0 0.0
2018-Feb-14 18:00N 29°58' W 093°52'0 0.0
2018-Feb-14 17:30N 29°58' W 093°52'0 0.0
2018-Feb-14 17:00N 29°58' W 093°52'0 0.0
2018-Feb-14 16:30N 29°58' W 093°52'0 0.0
2018-Feb-14 16:00N 29°58' W 093°52'0 0.0
2018-Feb-14 15:30N 29°58' W 093°52'0 0.0
2018-Feb-14 15:00N 29°58' W 093°52'1 2.7
2018-Feb-14 14:30N 29°59' W 093°53'2 3.9
2018-Feb-14 14:00N 29°60' W 093°55'0 0.0
2018-Feb-14 13:30N 29°60' W 093°55'0 0.0
2018-Feb-14 13:00N 29°60' W 093°55'0 0.0
2018-Feb-14 12:30N 29°60' W 093°55'0 0.0
2018-Feb-14 12:00N 29°60' W 093°55'0 0.0
2018-Feb-14 11:30N 29°60' W 093°55'0 0.0
2018-Feb-14 11:00N 29°60' W 093°55'0 0.0
2018-Feb-14 10:30N 29°60' W 093°55'0 0.0
2018-Feb-14 10:00N 29°60' W 093°55'0 0.0
2018-Feb-14 09:30N 29°60' W 093°55'0 0.0
2018-Feb-14 09:00N 29°60' W 093°55'0 0.0
2018-Feb-14 08:30N 29°60' W 093°55'0 0.0
2018-Feb-14 08:00N 29°60' W 093°55'0 0.0
2018-Feb-14 07:30N 29°60' W 093°55'0 0.0
2018-Feb-14 07:00N 29°60' W 093°55'0 0.0
2018-Feb-14 06:30N 29°60' W 093°55'0 0.0
2018-Feb-14 06:00N 29°60' W 093°55'0 0.0
2018-Feb-14 05:30N 29°60' W 093°55'0 0.0
2018-Feb-14 05:00N 29°60' W 093°55'0 0.0
2018-Feb-14 04:30N 29°60' W 093°55'0 0.0
2018-Feb-14 04:00N 29°60' W 093°55'0 0.0
2018-Feb-14 03:30N 29°60' W 093°55'0 0.0
2018-Feb-14 03:00N 29°60' W 093°55'0 0.0
2018-Feb-14 02:30N 29°60' W 093°55'0 0.0
2018-Feb-14 02:00N 29°60' W 093°55'0 0.0
2018-Feb-14 01:30N 29°60' W 093°55'0 0.0
2018-Feb-14 01:00N 29°60' W 093°55'0 0.0
2018-Feb-14 00:30N 29°60' W 093°55'0 0.0
2018-Feb-13 23:59N 29°60' W 093°55'0 0.0
2018-Feb-13 23:30N 29°60' W 093°55'0 0.0
2018-Feb-13 23:00N 29°60' W 093°55'0 0.0
2018-Feb-13 22:30N 29°60' W 093°55'0 0.0
2018-Feb-13 22:00N 29°60' W 093°55'0 0.0
2018-Feb-13 21:30N 29°60' W 093°55'0 0.0
2018-Feb-13 21:00N 29°60' W 093°55'0 0.0
2018-Feb-13 20:30N 29°60' W 093°55'0 0.0
2018-Feb-13 20:00N 29°60' W 093°55'0 0.0
2018-Feb-13 19:30N 29°60' W 093°55'0 0.0
2018-Feb-13 19:00N 29°60' W 093°55'0 0.0
2018-Feb-13 18:30N 29°60' W 093°55'0 0.0
2018-Feb-13 18:00N 29°60' W 093°55'0 0.0
2018-Feb-13 17:30N 29°60' W 093°55'0 0.0
2018-Feb-13 17:00N 29°60' W 093°55'0 0.0
2018-Feb-13 16:30N 29°60' W 093°55'0 0.0
2018-Feb-13 16:00N 29°60' W 093°55'0 0.0
2018-Feb-13 15:29N 29°60' W 093°55'0 0.0
2018-Feb-13 15:00N 29°60' W 093°55'0 0.0
2018-Feb-13 14:30N 29°60' W 093°55'0 0.0
2018-Feb-13 14:00N 29°60' W 093°55'0 0.0
2018-Feb-13 13:30N 29°60' W 093°55'0 0.0
2018-Feb-13 13:00N 29°60' W 093°55'0 0.0
2018-Feb-13 12:30N 29°60' W 093°55'0 0.0
2018-Feb-13 12:00N 29°60' W 093°55'0 0.0
2018-Feb-13 11:30N 29°60' W 093°55'0 0.0
2018-Feb-13 11:00N 29°60' W 093°55'0 0.0
2018-Feb-13 10:30N 29°60' W 093°55'0 0.5
2018-Feb-13 10:00N 29°60' W 093°55'1 1.6
2018-Feb-13 09:30N 29°59' W 093°54'0 0.6
2018-Feb-13 09:00N 29°59' W 093°54'2 4.1
2018-Feb-13 08:30N 29°58' W 093°51'3 6.5
2018-Feb-13 08:00N 29°55' W 093°53'3 6.8
2018-Feb-13 07:30N 29°53' W 093°56'3 6.3
2018-Feb-13 07:00N 29°50' W 093°57'2 3.5
2018-Feb-13 06:30N 29°49' W 093°59'1 2.4
2018-Feb-13 06:00N 29°48' W 094°00'2 4.6
2018-Feb-13 05:30N 29°47' W 094°02'2 4.6
2018-Feb-13 05:00N 29°45' W 094°04'2 4.6
2018-Feb-13 04:29N 29°44' W 094°06'2 4.0
2018-Feb-13 04:00N 29°42' W 094°08'2 4.5
2018-Feb-13 03:30N 29°41' W 094°10'2 4.2
2018-Feb-13 03:00N 29°41' W 094°12'2 4.3
2018-Feb-13 02:30N 29°40' W 094°15'2 4.3
2018-Feb-13 02:00N 29°39' W 094°17'2 4.1
2018-Feb-13 01:29N 29°38' W 094°19'2 4.0
2018-Feb-13 00:58N 29°37' W 094°21'2 3.9
2018-Feb-13 00:26N 29°36' W 094°23'2 2.9
2018-Feb-12 23:53N 29°35' W 094°25'1 2.2
2018-Feb-12 23:21N 29°34' W 094°25'  

Dump ship's entire track history